createdAt,value
2022-12-09T00:01:38.843Z,35.33
2022-12-09T00:04:05.823Z,141.77
2022-12-09T00:06:35.206Z,79.23
2022-12-09T00:09:05.462Z,60.93
2022-12-09T00:11:32.921Z,67.70
2022-12-09T00:14:04.714Z,74.60
2022-12-09T00:16:33.893Z,70.23
2022-12-09T00:19:03.930Z,39.63
2022-12-09T00:21:33.029Z,33.00
2022-12-09T00:24:04.012Z,57.57
2022-12-09T00:26:32.072Z,52.07
2022-12-09T00:29:00.052Z,47.50
2022-12-09T00:31:33.274Z,46.33
2022-12-09T00:34:10.855Z,34.30
2022-12-09T00:36:38.286Z,49.53
2022-12-09T00:39:08.146Z,62.43
2022-12-09T00:41:35.214Z,45.40
2022-12-09T00:44:08.255Z,52.47
2022-12-09T00:46:35.363Z,34.87
2022-12-09T00:49:05.659Z,38.73
2022-12-09T00:51:32.991Z,66.17
2022-12-09T00:54:02.792Z,43.60
2022-12-09T00:56:31.124Z,29.97
2022-12-09T00:59:01.848Z,31.90
2022-12-09T01:01:29.514Z,58.30
2022-12-09T01:03:57.579Z,41.87
2022-12-09T01:06:27.767Z,40.33
2022-12-09T01:08:58.620Z,50.47
2022-12-09T01:11:29.489Z,55.80
2022-12-09T01:14:01.466Z,57.10
2022-12-09T01:16:35.033Z,38.90
2022-12-09T01:19:10.893Z,46.10
2022-12-09T01:21:39.344Z,33.30
2022-12-09T01:24:11.038Z,46.90
2022-12-09T01:26:42.196Z,53.23
2022-12-09T01:29:14.918Z,39.90
2022-12-09T01:31:43.656Z,53.77
2022-12-09T01:34:11.290Z,48.53
2022-12-09T01:36:39.021Z,48.67
2022-12-09T01:39:08.265Z,56.73
2022-12-09T01:41:35.976Z,58.93
2022-12-09T01:44:21.329Z,78.57
2022-12-09T01:46:50.310Z,48.20
2022-12-09T01:49:28.433Z,45.60
2022-12-09T01:52:04.588Z,41.60
2022-12-09T01:54:33.118Z,51.90
2022-12-09T01:57:00.583Z,46.03
2022-12-09T01:59:29.215Z,48.80
2022-12-09T02:02:00.301Z,42.57
2022-12-09T02:04:34.998Z,51.63
2022-12-09T02:07:06.686Z,56.60
2022-12-09T02:09:34.144Z,50.00
2022-12-09T02:12:14.704Z,44.97
2022-12-09T02:15:07.509Z,52.57
2022-12-09T02:17:38.642Z,49.67
2022-12-09T02:20:14.623Z,51.47
2022-12-09T02:23:02.988Z,53.27
2022-12-09T02:26:00.284Z,51.60
2022-12-09T02:28:54.720Z,56.13
2022-12-09T02:31:53.553Z,52.27
2022-12-09T02:34:23.245Z,53.57
2022-12-09T02:37:03.159Z,54.67
2022-12-09T02:39:44.854Z,57.10
2022-12-09T02:42:19.317Z,58.53
2022-12-09T02:44:52.654Z,51.87
2022-12-09T02:47:29.022Z,53.97
2022-12-09T02:50:02.899Z,61.63
2022-12-09T02:52:32.609Z,49.10
2022-12-09T02:55:04.333Z,46.10
2022-12-09T02:57:35.104Z,41.00
2022-12-09T03:00:06.637Z,49.57
2022-12-09T03:02:40.214Z,53.90
2022-12-09T03:05:36.731Z,47.70
2022-12-09T03:08:51.970Z,48.40
2022-12-09T03:11:22.678Z,49.67
2022-12-09T03:14:15.319Z,44.80
2022-12-09T03:17:12.902Z,38.10
2022-12-09T03:20:06.717Z,47.33
2022-12-09T03:22:39.469Z,41.57
2022-12-09T03:25:13.035Z,42.43
2022-12-09T03:28:10.491Z,39.07
2022-12-09T03:30:45.471Z,40.00
2022-12-09T03:33:17.258Z,40.43
2022-12-09T03:35:59.191Z,35.20
2022-12-09T03:38:39.571Z,34.97
2022-12-09T03:41:38.511Z,42.03
2022-12-09T03:44:44.377Z,37.97
2022-12-09T03:47:12.333Z,35.80
2022-12-09T03:49:43.513Z,42.20
2022-12-09T03:52:36.656Z,34.50
2022-12-09T03:55:34.153Z,34.60
2022-12-09T03:58:03.807Z,37.70
2022-12-09T04:00:32.101Z,33.83
2022-12-09T04:03:00.859Z,35.10
2022-12-09T04:05:29.060Z,38.83
2022-12-09T04:07:57.034Z,31.43
2022-12-09T04:10:24.871Z,36.70
2022-12-09T04:12:53.330Z,31.30
2022-12-09T04:15:21.466Z,29.90
2022-12-09T04:17:49.352Z,31.30
2022-12-09T04:20:19.628Z,28.10
2022-12-09T04:22:50.058Z,34.03
2022-12-09T04:25:22.919Z,32.77
2022-12-09T04:27:50.448Z,27.60
2022-12-09T04:30:18.403Z,31.00
2022-12-09T04:32:48.563Z,26.27
2022-12-09T04:35:19.167Z,34.33
2022-12-09T04:37:49.849Z,30.07
2022-12-09T04:40:23.060Z,30.20
2022-12-09T04:42:51.969Z,30.50
2022-12-09T04:45:20.215Z,26.77
2022-12-09T04:47:48.562Z,29.23
2022-12-09T04:50:17.811Z,32.10
2022-12-09T04:52:48.421Z,29.37
2022-12-09T04:55:21.224Z,24.63
2022-12-09T04:57:53.667Z,25.93
2022-12-09T05:00:25.400Z,35.00
2022-12-09T05:03:01.033Z,30.30
2022-12-09T05:05:34.825Z,28.77
2022-12-09T05:08:03.152Z,29.10
2022-12-09T05:10:31.655Z,31.53
2022-12-09T05:12:59.816Z,25.50
2022-12-09T05:15:28.312Z,25.13
2022-12-09T05:17:58.838Z,29.13
2022-12-09T05:20:29.993Z,33.53
2022-12-09T05:22:57.836Z,25.70
2022-12-09T05:25:28.721Z,34.10
2022-12-09T05:27:57.885Z,26.70
2022-12-09T05:30:28.312Z,36.00
2022-12-09T05:32:56.242Z,27.73
2022-12-09T05:35:24.315Z,31.53
2022-12-09T05:37:54.424Z,27.90
2022-12-09T05:40:22.512Z,33.70
2022-12-09T05:42:50.715Z,30.90
2022-12-09T05:45:25.055Z,23.60
2022-12-09T05:47:52.831Z,24.03
2022-12-09T05:50:21.869Z,26.53
2022-12-09T05:52:51.743Z,25.77
2022-12-09T05:55:22.603Z,38.53
2022-12-09T05:57:53.372Z,23.77
2022-12-09T06:00:23.863Z,35.40
2022-12-09T06:02:51.999Z,29.47
2022-12-09T06:05:21.138Z,38.77
2022-12-09T06:07:53.236Z,33.37
2022-12-09T06:10:21.497Z,29.37
2022-12-09T06:12:50.157Z,26.93
2022-12-09T06:15:21.829Z,30.40
2022-12-09T06:17:51.162Z,40.97
2022-12-09T06:20:19.469Z,33.00
2022-12-09T06:22:46.913Z,31.83
2022-12-09T06:25:16.647Z,31.00
2022-12-09T06:27:47.372Z,31.63
2022-12-09T06:30:15.082Z,37.40
2022-12-09T06:32:42.600Z,40.53
2022-12-09T06:35:11.221Z,32.10
2022-12-09T06:37:39.131Z,42.17
2022-12-09T06:40:07.940Z,33.20
2022-12-09T06:42:35.580Z,33.10
2022-12-09T06:45:03.193Z,31.87
2022-12-09T06:47:30.622Z,44.33
2022-12-09T06:50:06.765Z,32.40
2022-12-09T06:52:35.121Z,33.30
2022-12-09T06:55:02.496Z,33.17
2022-12-09T06:57:30.170Z,30.67
2022-12-09T06:59:59.977Z,49.97
2022-12-09T07:02:32.606Z,39.40
2022-12-09T07:05:05.899Z,35.37
2022-12-09T07:07:34.540Z,33.40
2022-12-09T07:10:08.177Z,32.80
2022-12-09T07:12:36.552Z,30.20
2022-12-09T07:15:04.599Z,31.67
2022-12-09T07:17:32.868Z,26.13
2022-12-09T07:20:06.692Z,28.73
2022-12-09T07:22:35.123Z,29.37
2022-12-09T07:25:02.820Z,29.47
2022-12-09T07:27:30.387Z,31.83
2022-12-09T07:29:58.408Z,31.37
2022-12-09T07:32:26.626Z,28.20
2022-12-09T07:34:54.112Z,35.47
2022-12-09T07:37:21.908Z,28.07
2022-12-09T07:39:51.541Z,31.33
2022-12-09T07:42:21.194Z,30.10
2022-12-09T07:44:49.717Z,33.97
2022-12-09T07:47:18.005Z,29.10
2022-12-09T07:49:48.654Z,29.50
2022-12-09T07:52:16.917Z,30.00
2022-12-09T07:54:44.982Z,36.30
2022-12-09T07:57:12.552Z,34.13
2022-12-09T07:59:40.293Z,29.80
2022-12-09T08:02:08.971Z,25.13
2022-12-09T08:04:36.958Z,32.17
2022-12-09T08:07:04.881Z,36.80
2022-12-09T08:09:33.004Z,32.90
2022-12-09T08:12:00.477Z,36.67
2022-12-09T08:14:30.895Z,32.50
2022-12-09T08:16:58.762Z,31.33
2022-12-09T08:19:27.116Z,34.67
2022-12-09T08:21:55.148Z,35.57
2022-12-09T08:24:25.568Z,31.07
2022-12-09T08:26:53.467Z,33.37
2022-12-09T08:29:26.433Z,33.90
2022-12-09T08:31:54.502Z,31.63
2022-12-09T08:34:22.704Z,37.93
2022-12-09T08:36:50.319Z,34.17
2022-12-09T08:39:18.317Z,33.17
2022-12-09T08:41:46.151Z,31.40
2022-12-09T08:44:21.005Z,38.20
2022-12-09T08:46:53.013Z,27.70
2022-12-09T08:49:23.615Z,33.30
2022-12-09T08:51:53.680Z,27.40
2022-12-09T08:54:21.594Z,38.57
2022-12-09T08:56:55.137Z,32.17
2022-12-09T08:59:23.761Z,41.70
2022-12-09T09:01:51.826Z,33.90
2022-12-09T09:04:23.481Z,32.83
2022-12-09T09:06:52.668Z,37.30
2022-12-09T09:09:23.487Z,35.23
2022-12-09T09:11:51.214Z,37.70
2022-12-09T09:14:19.258Z,40.13
2022-12-09T09:16:47.327Z,41.53
2022-12-09T09:19:19.910Z,40.17
2022-12-09T09:21:48.746Z,43.47
2022-12-09T09:24:22.948Z,46.20
2022-12-09T09:26:54.178Z,39.03
2022-12-09T09:29:24.076Z,36.37
2022-12-09T09:31:56.220Z,42.40
2022-12-09T09:34:26.283Z,44.07
2022-12-09T09:36:55.659Z,47.43
2022-12-09T09:39:26.468Z,46.73
2022-12-09T09:42:09.016Z,48.30
2022-12-09T09:44:51.418Z,45.50
2022-12-09T09:47:38.102Z,57.97
2022-12-09T09:50:44.631Z,66.13
2022-12-09T09:53:32.894Z,57.50
2022-12-09T09:56:04.226Z,68.60
2022-12-09T09:58:47.217Z,65.17
2022-12-09T10:01:20.074Z,64.53
2022-12-09T10:04:18.197Z,65.87
2022-12-09T10:07:47.682Z,65.10
2022-12-09T10:10:40.202Z,78.90
2022-12-09T10:13:38.915Z,78.53
2022-12-09T10:16:41.871Z,72.10
2022-12-09T10:19:16.428Z,61.30
2022-12-09T10:21:46.203Z,67.30
2022-12-09T10:24:38.748Z,70.80
2022-12-09T10:27:29.793Z,57.57
2022-12-09T10:30:02.816Z,56.67
2022-12-09T10:32:37.477Z,65.87
2022-12-09T10:35:22.969Z,63.70
2022-12-09T10:37:54.252Z,53.13
2022-12-09T10:40:40.228Z,70.13
2022-12-09T10:43:47.360Z,53.97
2022-12-09T10:46:24.272Z,56.17
2022-12-09T10:49:02.417Z,49.93
2022-12-09T10:51:35.612Z,52.40
2022-12-09T10:54:27.026Z,50.10
2022-12-09T10:57:14.463Z,55.23
2022-12-09T11:00:06.465Z,48.53
2022-12-09T11:02:35.764Z,47.63
2022-12-09T11:05:28.560Z,47.77
2022-12-09T11:08:01.834Z,48.87
2022-12-09T11:10:31.033Z,46.67
2022-12-09T11:13:09.140Z,41.40
2022-12-09T11:15:44.890Z,42.70
2022-12-09T11:18:46.222Z,41.63
2022-12-09T11:21:36.906Z,36.63
2022-12-09T11:24:05.264Z,45.47
2022-12-09T11:26:43.422Z,37.10
2022-12-09T11:29:19.518Z,38.63
2022-12-09T11:31:48.217Z,32.23
2022-12-09T11:34:28.045Z,41.97
2022-12-09T11:36:59.154Z,46.77
2022-12-09T11:39:34.050Z,35.03
2022-12-09T11:42:19.776Z,39.83
2022-12-09T11:45:08.683Z,38.73
2022-12-09T11:48:22.676Z,52.07
2022-12-09T11:50:35.143Z,40.50
2022-12-09T11:53:12.737Z,36.20
2022-12-09T11:55:50.541Z,37.77
2022-12-09T11:59:14.305Z,43.13
2022-12-09T12:02:24.199Z,39.63
2022-12-09T12:05:25.175Z,30.93
2022-12-09T12:08:14.947Z,34.73
2022-12-09T12:10:53.807Z,42.80
2022-12-09T12:13:34.316Z,31.70
2022-12-09T12:16:07.976Z,28.93
2022-12-09T12:19:04.457Z,33.00
2022-12-09T12:21:49.443Z,23.40
2022-12-09T12:25:03.157Z,38.03
2022-12-09T12:28:16.918Z,35.87
2022-12-09T12:31:31.051Z,27.40
2022-12-09T12:34:26.442Z,34.20
2022-12-09T12:37:34.465Z,31.07
2022-12-09T12:40:37.248Z,25.93
2022-12-09T12:43:34.768Z,26.50
2022-12-09T12:46:19.107Z,24.30
2022-12-09T12:49:17.033Z,29.70
2022-12-09T12:52:39.431Z,29.30
2022-12-09T12:55:43.914Z,31.50
2022-12-09T12:58:40.080Z,24.97
2022-12-09T13:01:35.750Z,28.50
2022-12-09T13:04:38.017Z,24.60
2022-12-09T13:07:11.185Z,24.03
2022-12-09T13:10:26.322Z,31.13
2022-12-09T13:13:01.779Z,23.40
2022-12-09T13:15:59.138Z,23.97
2022-12-09T13:18:36.102Z,23.87
2022-12-09T13:21:06.933Z,21.00
2022-12-09T13:23:55.273Z,23.10
2022-12-09T13:26:51.354Z,20.77
2022-12-09T13:30:01.221Z,24.63
2022-12-09T13:33:03.922Z,23.37
2022-12-09T13:35:54.969Z,21.07
2022-12-09T13:38:34.067Z,17.30
2022-12-09T13:41:27.676Z,18.60
2022-12-09T13:44:07.718Z,14.77
2022-12-09T13:46:35.655Z,15.50
2022-12-09T13:49:24.758Z,14.67
2022-12-09T13:51:58.021Z,17.03
2022-12-09T13:54:32.722Z,16.10
2022-12-09T13:57:25.151Z,12.90
2022-12-09T13:59:56.560Z,12.93
2022-12-09T14:03:01.381Z,16.00
2022-12-09T14:05:31.710Z,11.33
2022-12-09T14:08:24.708Z,13.63
2022-12-09T14:10:54.511Z,17.23
2022-12-09T14:13:35.419Z,17.60
2022-12-09T14:16:17.816Z,18.50
2022-12-09T14:18:48.259Z,16.87
2022-12-09T14:21:26.272Z,13.00
2022-12-09T14:24:09.260Z,17.93
2022-12-09T14:26:48.431Z,14.90
2022-12-09T14:29:55.024Z,13.27
2022-12-09T14:32:53.806Z,14.10
2022-12-09T14:35:32.828Z,10.17
2022-12-09T14:38:24.823Z,9.63
2022-12-09T14:41:04.300Z,11.13
2022-12-09T14:43:52.222Z,16.20
2022-12-09T14:46:39.493Z,20.97
2022-12-09T14:49:22.514Z,15.50
2022-12-09T14:52:14.176Z,10.87
2022-12-09T14:54:49.156Z,16.03
2022-12-09T14:57:25.423Z,11.40
2022-12-09T14:59:57.093Z,11.87
2022-12-09T15:02:32.071Z,9.43
2022-12-09T15:05:02.263Z,14.10
2022-12-09T15:07:37.477Z,10.40
2022-12-09T15:10:28.186Z,8.63
2022-12-09T15:13:01.487Z,8.73
2022-12-09T15:15:38.117Z,11.13
2022-12-09T15:18:19.612Z,11.00
2022-12-09T15:20:57.335Z,9.87
2022-12-09T15:23:44.217Z,10.40
2022-12-09T15:26:33.147Z,10.53
2022-12-09T15:29:01.199Z,12.13
2022-12-09T15:31:32.974Z,13.07
2022-12-09T15:34:20.473Z,15.47
2022-12-09T15:36:55.976Z,14.17
2022-12-09T15:39:39.521Z,13.33
2022-12-09T15:42:14.851Z,12.57
2022-12-09T15:44:49.622Z,14.33
2022-12-09T15:47:34.206Z,13.57
2022-12-09T15:50:18.324Z,9.63
2022-12-09T15:52:59.803Z,9.70
2022-12-09T15:55:55.122Z,14.77
2022-12-09T15:58:36.376Z,13.17
2022-12-09T16:01:03.606Z,13.47
2022-12-09T16:03:35.491Z,11.47
2022-12-09T16:06:08.640Z,15.17
2022-12-09T16:08:43.124Z,16.40
2022-12-09T16:11:13.586Z,14.47
2022-12-09T16:14:00.724Z,17.00
2022-12-09T16:16:45.431Z,15.60
2022-12-09T16:19:34.645Z,14.50
2022-12-09T16:22:03.571Z,15.30
2022-12-09T16:24:57.944Z,19.07
2022-12-09T16:27:26.947Z,16.53
2022-12-09T16:29:57.479Z,15.27
2022-12-09T16:32:33.965Z,12.67
2022-12-09T16:35:28.545Z,12.60
2022-12-09T16:38:13.866Z,16.57
2022-12-09T16:40:46.813Z,19.33
2022-12-09T16:43:16.499Z,18.23
2022-12-09T16:45:44.550Z,14.40
2022-12-09T16:48:18.600Z,14.60
2022-12-09T16:51:14.467Z,18.30
2022-12-09T16:53:50.014Z,17.37
2022-12-09T16:56:28.758Z,21.13
2022-12-09T16:58:56.630Z,24.77
2022-12-09T17:01:35.549Z,29.17
2022-12-09T17:04:17.992Z,24.40
2022-12-09T17:06:45.871Z,27.20
2022-12-09T17:09:15.223Z,38.07
2022-12-09T17:11:48.304Z,36.73
2022-12-09T17:14:17.787Z,30.53
2022-12-09T17:16:47.305Z,36.33
2022-12-09T17:19:16.784Z,45.60
2022-12-09T17:21:48.610Z,52.27
2022-12-09T17:24:15.966Z,45.20
2022-12-09T17:26:42.810Z,47.53
2022-12-09T17:29:09.756Z,45.63
2022-12-09T17:31:36.680Z,46.20
2022-12-09T17:34:03.653Z,48.90
2022-12-09T17:36:30.543Z,44.70
2022-12-09T17:39:04.364Z,49.10
2022-12-09T17:41:31.183Z,54.00
2022-12-09T17:44:00.665Z,50.10
2022-12-09T17:46:27.815Z,47.60
2022-12-09T17:49:00.778Z,44.00
2022-12-09T17:51:33.939Z,37.90
2022-12-09T17:54:05.254Z,43.90
2022-12-09T17:56:34.783Z,42.83
2022-12-09T17:59:11.005Z,44.37
2022-12-09T18:01:41.014Z,46.63
2022-12-09T18:04:11.146Z,42.60
2022-12-09T18:06:44.766Z,42.40
2022-12-09T18:09:18.329Z,38.10
2022-12-09T18:11:46.124Z,45.83
2022-12-09T18:14:13.203Z,37.70
2022-12-09T18:16:42.853Z,39.67
2022-12-09T18:19:23.395Z,37.87
2022-12-09T18:21:54.450Z,42.80
2022-12-09T18:24:21.944Z,43.93
2022-12-09T18:26:48.887Z,41.83
2022-12-09T18:29:15.912Z,40.63
2022-12-09T18:31:54.176Z,42.10
2022-12-09T18:34:25.792Z,40.53
2022-12-09T18:36:53.635Z,50.27
2022-12-09T18:39:21.606Z,46.97
2022-12-09T18:41:48.516Z,47.50
2022-12-09T18:44:16.640Z,41.93
2022-12-09T18:46:49.468Z,44.30
2022-12-09T18:49:20.692Z,44.73
2022-12-09T18:51:50.028Z,42.13
2022-12-09T18:54:30.869Z,41.70
2022-12-09T18:56:58.667Z,44.40
2022-12-09T18:59:31.454Z,38.17
2022-12-09T19:02:00.842Z,42.37
2022-12-09T19:04:31.534Z,41.70
2022-12-09T19:07:03.638Z,36.57
2022-12-09T19:09:38.034Z,42.33
2022-12-09T19:12:44.800Z,38.80
2022-12-09T19:14:57.793Z,42.80
2022-12-09T19:17:26.909Z,43.17
2022-12-09T19:19:58.459Z,38.60
2022-12-09T19:22:27.001Z,42.33
2022-12-09T19:24:56.096Z,43.57
2022-12-09T19:27:25.255Z,41.90
2022-12-09T19:29:55.169Z,46.83
2022-12-09T19:32:51.841Z,35.63
2022-12-09T19:35:11.097Z,46.07
2022-12-09T19:37:42.881Z,39.80
2022-12-09T19:40:13.121Z,43.90
2022-12-09T19:42:40.438Z,42.37
2022-12-09T19:45:13.881Z,45.60
2022-12-09T19:47:44.033Z,38.07
2022-12-09T19:50:11.104Z,43.50
2022-12-09T19:52:38.027Z,43.83
2022-12-09T19:55:05.490Z,39.40
2022-12-09T19:57:34.981Z,38.10
2022-12-09T20:00:01.888Z,32.77
2022-12-09T20:02:28.857Z,33.27
2022-12-09T20:04:55.821Z,41.87
2022-12-09T20:07:22.692Z,35.03
2022-12-09T20:09:49.868Z,32.00
2022-12-09T20:12:17.004Z,44.83
2022-12-09T20:14:44.142Z,32.77
2022-12-09T20:17:16.561Z,38.50
2022-12-09T20:19:49.085Z,34.23
2022-12-09T20:22:16.024Z,36.63
2022-12-09T20:24:43.374Z,29.97
2022-12-09T20:27:10.272Z,35.27
2022-12-09T20:29:40.158Z,43.30
2022-12-09T20:32:11.212Z,33.47
2022-12-09T20:34:38.308Z,33.17
2022-12-09T20:37:05.682Z,27.23
2022-12-09T20:39:32.648Z,37.50
2022-12-09T20:41:59.682Z,29.03
2022-12-09T20:44:26.720Z,33.27
2022-12-09T20:46:53.780Z,34.40
2022-12-09T20:49:26.397Z,33.93
2022-12-09T20:51:56.576Z,27.30
2022-12-09T20:54:26.010Z,36.17
2022-12-09T20:56:55.285Z,33.47
2022-12-09T20:59:25.246Z,31.07
2022-12-09T21:01:55.814Z,31.80
2022-12-09T21:04:23.423Z,37.53
2022-12-09T21:06:54.885Z,31.33
2022-12-09T21:09:22.864Z,38.70
2022-12-09T21:11:50.527Z,33.20
2022-12-09T21:14:18.993Z,34.00
2022-12-09T21:16:49.964Z,33.90
2022-12-09T21:19:22.516Z,32.20
2022-12-09T21:21:50.736Z,29.70
2022-12-09T21:24:23.169Z,33.33
2022-12-09T21:26:56.621Z,33.70
2022-12-09T21:29:31.682Z,31.77
2022-12-09T21:31:59.774Z,34.23
2022-12-09T21:34:27.203Z,28.93
2022-12-09T21:36:54.096Z,41.40
2022-12-09T21:39:24.172Z,35.20
2022-12-09T21:41:51.318Z,34.17
2022-12-09T21:44:19.280Z,27.73
2022-12-09T21:46:46.373Z,29.20
2022-12-09T21:49:13.994Z,28.93
2022-12-09T21:51:41.361Z,26.57
2022-12-09T21:54:08.581Z,29.20
2022-12-09T21:56:37.883Z,31.00
2022-12-09T21:59:10.120Z,26.67
2022-12-09T22:01:42.355Z,27.27
2022-12-09T22:04:18.518Z,26.40
2022-12-09T22:06:48.893Z,24.30
2022-12-09T22:09:18.701Z,23.60
2022-12-09T22:11:45.642Z,28.60
2022-12-09T22:14:12.802Z,26.30
2022-12-09T22:16:43.108Z,29.23
2022-12-09T22:19:17.352Z,27.77
2022-12-09T22:21:44.944Z,27.60
2022-12-09T22:24:14.233Z,27.90
2022-12-09T22:26:43.631Z,26.20
2022-12-09T22:29:13.916Z,24.10
2022-12-09T22:31:46.870Z,24.97
2022-12-09T22:34:20.279Z,27.60
2022-12-09T22:36:53.573Z,27.90
2022-12-09T22:39:23.016Z,33.23
2022-12-09T22:41:53.184Z,26.80
2022-12-09T22:44:24.623Z,24.07
2022-12-09T22:46:51.561Z,25.60
2022-12-09T22:49:21.016Z,27.10
2022-12-09T22:51:48.415Z,24.30
2022-12-09T22:54:15.707Z,25.97
2022-12-09T22:56:43.876Z,25.80
2022-12-09T22:59:14.738Z,26.17
2022-12-09T23:01:45.069Z,23.30
2022-12-09T23:04:14.073Z,27.20
2022-12-09T23:06:46.462Z,20.37
2022-12-09T23:09:22.057Z,21.23
2022-12-09T23:11:52.803Z,22.27
2022-12-09T23:14:22.308Z,15.20
2022-12-09T23:16:49.385Z,17.90
2022-12-09T23:19:19.386Z,15.37
2022-12-09T23:21:50.853Z,17.93
2022-12-09T23:24:24.456Z,21.90
2022-12-09T23:26:51.797Z,12.90
2022-12-09T23:29:23.728Z,16.30
2022-12-09T23:31:53.274Z,12.63
2022-12-09T23:34:21.965Z,14.27
2022-12-09T23:36:53.433Z,19.23
2022-12-09T23:39:20.309Z,13.83
2022-12-09T23:41:47.728Z,13.13
2022-12-09T23:44:18.837Z,12.70
2022-12-09T23:46:46.317Z,15.17
2022-12-09T23:49:15.803Z,15.90
2022-12-09T23:51:44.026Z,13.13
2022-12-09T23:54:14.371Z,12.17
2022-12-09T23:56:44.150Z,11.50
2022-12-09T23:59:15.618Z,10.87
